Time;durP1;ratioP1;P1;durP2;ratioP2;P2;SDS_P1;SDS_P2;PMS_P1;PMS_P2;Temp;Humidity;BMP_temperature;BMP_pressure;BME280_temperature;BME280_humidity;BME280_pressure;Samples;Min_cycle;Max_cycle;Signal;HPM_P1;HPM_P2
2023/08/31 00:01:56;;;;;;;4.57;4.20;;;14.00;99.90;;;;;;5028083;28;20451;-61
2023/08/31 00:04:25;;;;;;;3.40;3.20;;;14.00;99.90;;;;;;5027795;28;20460;-61
2023/08/31 00:06:51;;;;;;;4.17;3.87;;;14.00;99.90;;;;;;5027356;28;20459;-61
2023/08/31 00:09:18;;;;;;;3.00;2.80;;;14.00;99.90;;;;;;5027613;28;20555;-60
2023/08/31 00:11:46;;;;;;;4.30;4.00;;;14.00;99.90;;;;;;5027960;28;20488;-61
2023/08/31 00:14:12;;;;;;;2.93;2.73;;;14.00;99.90;;;;;;5027945;28;20454;-61
2023/08/31 00:16:40;;;;;;;3.90;2.63;;;14.00;99.90;;;;;;5026539;28;20464;-61
2023/08/31 00:19:07;;;;;;;5.27;3.43;;;14.00;99.90;;;;;;5027301;28;20480;-61
2023/08/31 00:21:35;;;;;;;2.93;2.63;;;14.00;99.90;;;;;;5027690;28;20480;-61
2023/08/31 00:24:02;;;;;;;3.47;2.87;;;14.00;99.90;;;;;;5027631;28;20444;-61
2023/08/31 00:26:30;;;;;;;6.53;2.90;;;13.90;99.90;;;;;;5027069;28;20548;-61
2023/08/31 00:28:58;;;;;;;7.67;3.70;;;13.90;99.90;;;;;;5027761;28;20476;-61
2023/08/31 00:31:25;;;;;;;3.00;2.80;;;13.80;99.90;;;;;;5027978;28;20455;-61
2023/08/31 00:33:52;;;;;;;3.60;2.97;;;13.80;99.90;;;;;;5027857;28;20463;-61
2023/08/31 00:36:19;;;;;;;3.27;2.97;;;13.70;99.90;;;;;;5027032;28;20536;-61
2023/08/31 00:38:47;;;;;;;3.47;3.17;;;13.70;99.90;;;;;;5027764;28;20480;-61
2023/08/31 00:41:14;;;;;;;5.07;3.20;;;13.60;99.90;;;;;;5027627;28;20455;-60
2023/08/31 00:43:41;;;;;;;5.67;3.07;;;13.60;99.90;;;;;;5027562;28;21032;-61
2023/08/31 00:46:08;;;;;;;2.70;2.50;;;13.60;99.90;;;;;;5026708;28;20878;-59
2023/08/31 00:48:35;;;;;;;3.43;3.10;;;13.50;99.90;;;;;;5031171;28;20504;-61
2023/08/31 00:51:02;;;;;;;4.17;3.47;;;13.50;99.90;;;;;;5031216;28;20455;-61
2023/08/31 00:53:31;;;;;;;3.37;3.07;;;13.50;99.90;;;;;;5031391;28;20586;-60
2023/08/31 00:56:00;;;;;;;5.13;3.60;;;13.50;99.90;;;;;;5030578;28;20471;-61
2023/08/31 00:58:26;;;;;;;4.00;3.60;;;13.50;99.90;;;;;;5031178;28;20559;-61
2023/08/31 01:01:03;;;;;;;5.23;4.70;;;13.50;99.90;;;;;;5030095;28;20812;-61
2023/08/31 01:03:37;;;;;;;4.50;4.20;;;13.50;99.90;;;;;;5021173;28;20452;-61
2023/08/31 01:06:17;;;;;;;5.20;4.73;;;13.50;99.90;;;;;;5022675;28;20455;-61
2023/08/31 01:08:53;;;;;;;6.17;4.80;;;13.50;99.90;;;;;;5030842;28;20471;-61
2023/08/31 01:11:31;;;;;;;5.67;5.27;;;13.50;99.90;;;;;;5027096;28;20440;-61
2023/08/31 01:14:04;;;;;;;5.20;4.80;;;13.60;99.90;;;;;;4991684;28;20454;-61
2023/08/31 01:16:32;;;;;;;5.87;4.53;;;13.60;99.90;;;;;;4991084;28;20451;-61
2023/08/31 01:19:02;;;;;;;4.90;4.40;;;13.60;99.90;;;;;;4991255;28;20509;-61
2023/08/31 01:21:35;;;;;;;5.40;4.90;;;13.70;99.90;;;;;;4991445;28;20465;-61
2023/08/31 01:24:06;;;;;;;6.27;5.00;;;13.70;99.90;;;;;;4991247;28;20493;-61
2023/08/31 01:26:33;;;;;;;4.70;4.40;;;13.70;99.90;;;;;;4990798;28;20533;-60
2023/08/31 01:29:00;;;;;;;5.20;4.77;;;13.70;99.90;;;;;;4991464;28;20474;-61
2023/08/31 01:31:27;;;;;;;5.50;5.00;;;13.70;99.90;;;;;;4991522;28;20534;-61
2023/08/31 01:33:54;;;;;;;6.20;5.70;;;13.70;99.90;;;;;;4991341;28;20447;-61
2023/08/31 01:36:26;;;;;;;4.97;4.47;;;13.70;99.90;;;;;;4990481;28;20455;-61
2023/08/31 01:38:59;;;;;;;5.20;4.80;;;13.70;99.90;;;;;;5017641;28;20469;-61
2023/08/31 01:41:29;;;;;;;6.17;5.60;;;13.70;99.90;;;;;;5030392;28;20455;-61
2023/08/31 01:43:57;;;;;;;6.93;6.23;;;13.70;99.90;;;;;;5030623;28;20540;-61
2023/08/31 01:46:24;;;;;;;6.07;5.47;;;13.70;99.90;;;;;;5029564;28;20816;-61
2023/08/31 01:48:51;;;;;;;6.53;5.90;;;13.70;99.90;;;;;;5030219;28;20473;-61
2023/08/31 01:51:18;;;;;;;6.37;5.87;;;13.70;99.90;;;;;;5030236;28;20445;-61
2023/08/31 01:53:45;;;;;;;8.53;6.30;;;13.70;99.90;;;;;;5030507;28;20861;-61
2023/08/31 01:56:13;;;;;;;7.33;5.97;;;13.70;99.90;;;;;;5029787;28;20460;-61
2023/08/31 01:58:41;;;;;;;6.73;6.00;;;13.70;99.90;;;;;;5030010;28;20490;-61
2023/08/31 02:01:08;;;;;;;7.20;6.53;;;13.70;99.90;;;;;;5028845;28;20460;-61
2023/08/31 02:03:35;;;;;;;6.83;6.30;;;13.60;99.90;;;;;;5030244;28;20543;-60
2023/08/31 02:06:03;;;;;;;6.43;5.83;;;13.60;99.90;;;;;;5029160;28;20459;-61
2023/08/31 02:08:30;;;;;;;8.17;6.77;;;13.50;99.90;;;;;;5030013;28;20489;-61
2023/08/31 02:10:57;;;;;;;7.77;7.00;;;13.50;99.90;;;;;;5029812;28;20837;-61
2023/08/31 02:13:24;;;;;;;7.37;6.40;;;13.50;99.90;;;;;;5029677;28;20490;-61
2023/08/31 02:15:54;;;;;;;7.30;6.53;;;13.50;99.90;;;;;;5029261;28;20455;-61
2023/08/31 02:18:20;;;;;;;6.87;5.60;;;13.50;99.90;;;;;;5029579;28;20564;-61
2023/08/31 02:20:47;;;;;;;6.30;5.70;;;13.60;99.90;;;;;;5029962;28;20543;-61
2023/08/31 02:23:14;;;;;;;9.90;6.10;;;13.50;99.90;;;;;;5029942;28;21017;-61
2023/08/31 02:25:42;;;;;;;7.50;5.50;;;13.50;99.90;;;;;;5029434;28;20539;-61
2023/08/31 02:28:09;;;;;;;7.37;6.77;;;13.40;99.90;;;;;;5028620;28;20473;-61
2023/08/31 02:30:35;;;;;;;8.53;6.23;;;13.40;99.90;;;;;;5029321;28;20464;-61
2023/08/31 02:33:04;;;;;;;6.63;6.07;;;13.40;99.90;;;;;;5029498;28;20495;-61
2023/08/31 02:35:31;;;;;;;7.90;6.60;;;13.40;99.90;;;;;;5029317;28;20455;-61
2023/08/31 02:37:58;;;;;;;7.10;5.83;;;13.40;99.90;;;;;;5024879;28;20478;-61
2023/08/31 02:40:25;;;;;;;7.63;6.93;;;13.30;99.90;;;;;;5029102;28;20441;-61
2023/08/31 02:42:52;;;;;;;7.10;6.40;;;13.30;99.90;;;;;;5029030;28;20819;-60
2023/08/31 02:45:19;;;;;;;8.20;7.20;;;13.30;99.90;;;;;;5029351;28;20456;-61
2023/08/31 02:47:46;;;;;;;9.40;6.80;;;13.30;99.90;;;;;;5028695;28;20555;-60
2023/08/31 02:50:14;;;;;;;7.90;7.10;;;13.40;99.90;;;;;;5029378;28;20872;-61
2023/08/31 02:52:41;;;;;;;7.93;6.60;;;13.30;99.90;;;;;;5028750;28;20489;-61
2023/08/31 02:55:10;;;;;;;8.60;7.70;;;13.30;99.90;;;;;;5029002;28;20535;-61
2023/08/31 02:57:37;;;;;;;10.10;9.17;;;13.30;99.90;;;;;;5028256;28;20491;-61
2023/08/31 03:00:08;;;;;;;10.63;9.63;;;13.20;99.90;;;;;;5027869;28;20452;-61
2023/08/31 03:02:36;;;;;;;9.53;8.63;;;13.20;99.90;;;;;;5029002;28;20960;-60
2023/08/31 03:05:03;;;;;;;9.57;8.70;;;13.20;99.90;;;;;;5029130;28;20457;-61
2023/08/31 03:07:31;;;;;;;11.03;8.87;;;13.20;99.90;;;;;;5027947;28;21010;-61
2023/08/31 03:09:58;;;;;;;11.97;10.73;;;13.20;99.90;;;;;;5028547;28;20463;-60
2023/08/31 03:12:25;;;;;;;10.03;9.03;;;13.20;99.90;;;;;;5029075;28;21070;-61
2023/08/31 03:14:52;;;;;;;11.07;9.93;;;13.20;99.90;;;;;;5025674;28;20460;-61
2023/08/31 03:17:19;;;;;;;8.73;8.00;;;13.20;99.90;;;;;;5027995;28;20964;-61
2023/08/31 03:19:46;;;;;;;10.50;8.07;;;13.20;99.90;;;;;;5028684;28;20455;-61
2023/08/31 03:22:12;;;;;;;9.83;8.73;;;13.10;99.90;;;;;;5028610;28;20448;-61
2023/08/31 03:24:40;;;;;;;9.03;8.23;;;13.10;99.90;;;;;;5028459;28;21144;-61
2023/08/31 03:27:07;;;;;;;10.57;7.13;;;13.10;99.90;;;;;;5027397;28;20457;-61
2023/08/31 03:29:34;;;;;;;11.20;7.53;;;13.10;99.90;;;;;;5027977;28;20488;-61
2023/08/31 03:32:02;;;;;;;8.67;7.40;;;13.00;99.90;;;;;;5028557;28;20868;-61
2023/08/31 03:34:30;;;;;;;8.00;7.30;;;13.00;99.90;;;;;;5028430;28;20503;-61
2023/08/31 03:36:57;;;;;;;7.47;6.77;;;13.00;99.90;;;;;;5027997;28;20458;-61
2023/08/31 03:39:24;;;;;;;9.67;8.80;;;13.00;99.90;;;;;;5028515;28;20973;-61
2023/08/31 03:41:52;;;;;;;10.53;9.57;;;13.00;99.90;;;;;;5028568;28;21024;-60
2023/08/31 03:44:21;;;;;;;10.50;9.40;;;13.00;99.90;;;;;;5028678;28;20827;-62
2023/08/31 03:46:47;;;;;;;10.40;9.50;;;13.00;99.90;;;;;;5027825;28;21113;-61
2023/08/31 03:49:14;;;;;;;8.93;8.10;;;13.00;99.90;;;;;;5028332;28;20467;-61
2023/08/31 03:51:41;;;;;;;13.10;10.30;;;13.00;99.90;;;;;;5028395;28;20486;-61
2023/08/31 03:54:08;;;;;;;10.30;9.30;;;13.00;99.90;;;;;;5028125;28;20495;-62
2023/08/31 03:56:35;;;;;;;11.27;9.43;;;13.00;99.90;;;;;;5027794;28;20456;-62
2023/08/31 03:59:04;;;;;;;11.50;8.50;;;13.00;99.90;;;;;;5026499;28;20483;-61
2023/08/31 04:01:31;;;;;;;9.87;8.97;;;13.00;99.90;;;;;;5028744;28;20460;-61
2023/08/31 04:03:58;;;;;;;15.50;8.27;;;13.00;99.90;;;;;;5028435;28;20808;-62
2023/08/31 04:06:25;;;;;;;9.23;8.27;;;13.00;99.90;;;;;;5027670;28;20484;-62
2023/08/31 04:08:52;;;;;;;11.50;9.17;;;12.90;99.90;;;;;;5028525;28;20840;-62
2023/08/31 04:11:18;;;;;;;9.97;8.97;;;12.90;99.90;;;;;;5028262;28;20478;-61
2023/08/31 04:13:45;;;;;;;10.57;9.77;;;13.00;99.90;;;;;;5028078;28;20491;-62
2023/08/31 04:16:13;;;;;;;11.80;9.70;;;12.90;99.90;;;;;;5027524;28;20948;-62
2023/08/31 04:18:40;;;;;;;10.77;9.77;;;12.90;99.90;;;;;;5028039;28;20563;-62
2023/08/31 04:21:07;;;;;;;11.00;10.00;;;12.90;99.90;;;;;;5028259;28;20445;-62
2023/08/31 04:23:34;;;;;;;10.97;9.87;;;12.90;99.90;;;;;;5032160;28;20445;-61
2023/08/31 04:26:01;;;;;;;10.00;9.10;;;12.90;99.90;;;;;;5031387;28;20463;-62
2023/08/31 04:28:28;;;;;;;9.70;8.80;;;12.80;99.90;;;;;;5031771;28;21059;-61
2023/08/31 04:30:54;;;;;;;8.80;7.90;;;12.80;99.90;;;;;;5017802;28;20452;-62
2023/08/31 04:33:23;;;;;;;10.00;9.00;;;12.80;99.90;;;;;;5012199;28;20490;-62
2023/08/31 04:35:50;;;;;;;9.47;8.57;;;12.80;99.90;;;;;;5011831;28;21302;-62
2023/08/31 04:38:17;;;;;;;19.10;10.07;;;12.80;99.90;;;;;;5011979;28;20473;-61
2023/08/31 04:40:44;;;;;;;10.93;8.43;;;12.80;99.90;;;;;;5010606;28;20449;-60
2023/08/31 04:43:11;;;;;;;10.77;9.20;;;12.80;99.90;;;;;;5012195;28;20469;-61
2023/08/31 04:45:38;;;;;;;10.67;7.63;;;12.80;99.90;;;;;;5011986;28;20431;-61
2023/08/31 04:48:05;;;;;;;8.47;7.67;;;12.70;99.90;;;;;;5010868;28;20476;-60
2023/08/31 04:50:33;;;;;;;11.70;9.40;;;12.80;99.90;;;;;;5012063;28;20957;-61
2023/08/31 04:53:00;;;;;;;9.33;7.97;;;12.80;99.90;;;;;;5012182;28;20492;-62
2023/08/31 04:55:27;;;;;;;10.63;7.80;;;12.80;99.90;;;;;;5012093;28;20456;-62
2023/08/31 04:57:54;;;;;;;9.90;8.60;;;12.80;99.90;;;;;;5011061;28;20850;-62
2023/08/31 05:00:21;;;;;;;9.67;8.50;;;12.80;99.90;;;;;;5011974;28;20460;-61
2023/08/31 05:02:48;;;;;;;9.70;8.13;;;12.80;99.90;;;;;;5011972;28;20448;-61
2023/08/31 05:05:14;;;;;;;9.07;8.17;;;12.80;99.90;;;;;;5011978;28;20532;-61
2023/08/31 05:07:43;;;;;;;8.23;7.37;;;12.80;99.90;;;;;;5010600;28;20560;-62
2023/08/31 05:10:11;;;;;;;9.20;7.80;;;12.80;99.90;;;;;;5011567;28;20462;-61
2023/08/31 05:12:38;;;;;;;8.97;8.07;;;12.80;99.90;;;;;;5011349;28;20521;-62
2023/08/31 05:15:05;;;;;;;9.97;9.07;;;12.90;99.90;;;;;;5011431;28;20449;-62
2023/08/31 05:17:32;;;;;;;11.20;9.13;;;12.90;99.90;;;;;;5010835;28;20556;-62
2023/08/31 05:19:59;;;;;;;10.60;9.03;;;12.90;99.90;;;;;;5011726;28;20456;-62
2023/08/31 05:22:26;;;;;;;9.53;8.03;;;13.00;99.90;;;;;;5011536;28;20938;-62
2023/08/31 05:24:54;;;;;;;10.13;9.13;;;13.00;99.90;;;;;;5011231;28;20930;-62
2023/08/31 05:27:21;;;;;;;9.90;8.27;;;13.00;99.90;;;;;;5010240;28;20456;-62
2023/08/31 05:29:47;;;;;;;12.13;9.47;;;13.00;99.90;;;;;;5011628;28;20459;-62
2023/08/31 05:32:14;;;;;;;11.73;9.27;;;13.10;99.90;;;;;;5010428;28;20453;-62
2023/08/31 05:34:41;;;;;;;9.63;8.73;;;13.10;99.90;;;;;;5011133;28;20493;-62
2023/08/31 05:37:08;;;;;;;12.07;9.67;;;13.10;99.90;;;;;;5010036;28;20459;-62
2023/08/31 05:39:35;;;;;;;11.03;10.00;;;13.20;99.90;;;;;;5010934;28;20481;-62
2023/08/31 05:42:03;;;;;;;10.37;9.30;;;13.20;99.90;;;;;;5010885;28;20529;-61
2023/08/31 05:44:30;;;;;;;12.60;10.90;;;13.30;99.90;;;;;;5010581;28;20965;-62
2023/08/31 05:46:57;;;;;;;11.67;9.13;;;13.30;99.90;;;;;;5010330;28;20454;-62
2023/08/31 05:49:24;;;;;;;10.23;9.00;;;13.30;99.90;;;;;;5010975;28;21118;-62
2023/08/31 05:51:50;;;;;;;10.77;9.77;;;13.40;99.90;;;;;;5011062;28;20460;-62
2023/08/31 05:54:17;;;;;;;11.77;10.10;;;13.40;99.90;;;;;;5010898;28;20503;-62
2023/08/31 05:56:44;;;;;;;15.23;11.47;;;13.40;99.90;;;;;;5009855;28;21006;-62
2023/08/31 05:59:12;;;;;;;11.97;10.97;;;13.40;99.90;;;;;;5010193;28;20504;-62
2023/08/31 06:01:39;;;;;;;13.97;11.47;;;13.40;99.90;;;;;;5010819;28;20906;-62
2023/08/31 06:04:06;;;;;;;14.83;11.40;;;13.50;99.90;;;;;;5010705;28;20453;-62
2023/08/31 06:06:33;;;;;;;13.90;11.80;;;13.50;99.90;;;;;;5010181;28;20548;-62
2023/08/31 06:09:00;;;;;;;14.10;11.43;;;13.50;99.90;;;;;;5010585;28;20476;-61
2023/08/31 06:11:27;;;;;;;13.13;11.70;;;13.50;99.90;;;;;;5010415;28;20838;-62
2023/08/31 06:13:54;;;;;;;13.23;11.93;;;13.50;99.90;;;;;;5010593;28;20592;-62
2023/08/31 06:16:22;;;;;;;20.47;11.77;;;13.60;99.90;;;;;;5009459;28;20450;-61
2023/08/31 06:18:49;;;;;;;15.53;13.43;;;13.60;99.90;;;;;;5009456;28;20484;-62
2023/08/31 06:21:16;;;;;;;12.73;11.50;;;13.60;99.90;;;;;;5015758;28;20479;-61
2023/08/31 06:23:43;;;;;;;12.70;10.87;;;13.60;99.90;;;;;;5017652;28;20461;-62
2023/08/31 06:26:10;;;;;;;13.53;12.20;;;13.70;99.90;;;;;;5017516;28;20541;-62
2023/08/31 06:28:37;;;;;;;13.20;11.77;;;13.70;99.90;;;;;;5015305;28;20485;-62
2023/08/31 06:31:04;;;;;;;14.37;12.07;;;13.80;99.90;;;;;;5016593;28;20890;-62
2023/08/31 06:33:32;;;;;;;12.77;11.33;;;13.90;99.90;;;;;;5028840;28;20485;-62
2023/08/31 06:35:59;;;;;;;12.90;10.70;;;14.10;99.90;;;;;;5028669;28;20884;-62
2023/08/31 06:38:26;;;;;;;10.37;9.33;;;14.20;99.90;;;;;;5028527;28;20512;-62
2023/08/31 06:40:58;;;;;;;12.33;11.03;;;14.40;99.90;;;;;;5029643;28;20824;-62
2023/08/31 06:43:26;;;;;;;12.47;11.37;;;14.50;99.90;;;;;;5029425;28;20461;-62
2023/08/31 06:45:53;;;;;;;10.83;9.57;;;14.60;99.90;;;;;;5027962;28;20453;-62
2023/08/31 06:48:20;;;;;;;11.27;10.20;;;14.70;99.90;;;;;;5028929;28;20475;-62
2023/08/31 06:50:48;;;;;;;10.60;9.53;;;14.70;99.90;;;;;;5028974;28;20789;-62
2023/08/31 06:53:15;;;;;;;10.63;9.60;;;14.80;99.90;;;;;;5029010;28;20453;-62
2023/08/31 06:55:41;;;;;;;9.60;8.60;;;15.00;99.90;;;;;;5029024;28;20826;-62
2023/08/31 06:58:08;;;;;;;10.67;9.67;;;15.10;99.90;;;;;;5028022;28;20483;-62
2023/08/31 07:00:35;;;;;;;10.07;9.17;;;15.10;99.90;;;;;;5028992;28;20580;-62
2023/08/31 07:03:03;;;;;;;8.77;8.07;;;15.20;99.90;;;;;;5029088;28;20456;-62
2023/08/31 07:05:35;;;;;;;9.70;8.67;;;15.30;99.90;;;;;;5028981;28;20831;-62
2023/08/31 07:08:03;;;;;;;10.83;8.70;;;15.30;99.90;;;;;;5028295;28;20481;-61
2023/08/31 07:10:30;;;;;;;8.90;7.00;;;15.30;99.90;;;;;;5028554;28;20458;-62
2023/08/31 07:12:57;;;;;;;9.60;8.07;;;15.50;99.90;;;;;;5028759;28;20455;-62
2023/08/31 07:15:24;;;;;;;11.80;10.80;;;15.50;99.90;;;;;;5028631;28;20956;-62
2023/08/31 07:17:50;;;;;;;8.53;7.80;;;15.50;99.90;;;;;;5027714;28;21067;-61
2023/08/31 07:20:17;;;;;;;10.37;7.93;;;15.60;99.90;;;;;;4990263;28;20457;-62
2023/08/31 07:22:44;;;;;;;13.93;9.03;;;15.60;99.90;;;;;;4989093;28;20537;-62
2023/08/31 07:25:12;;;;;;;12.80;8.77;;;15.70;99.90;;;;;;4988968;28;20548;-62
2023/08/31 07:27:39;;;;;;;6.83;6.23;;;15.70;99.90;;;;;;4988502;28;20555;-63
2023/08/31 07:30:07;;;;;;;6.53;5.93;;;15.80;99.90;;;;;;4988694;28;20989;-63
2023/08/31 07:32:34;;;;;;;10.47;7.00;;;15.80;99.90;;;;;;4987994;28;20459;-62
2023/08/31 07:35:02;;;;;;;6.10;5.03;;;15.90;99.90;;;;;;4989115;28;20501;-62
2023/08/31 07:37:29;;;;;;;13.07;6.60;;;16.00;99.90;;;;;;4988185;28;20569;-62
2023/08/31 07:39:56;;;;;;;113.03;20.80;;;16.00;99.90;;;;;;4988487;28;20450;-63
2023/08/31 07:42:24;;;;;;;7.50;4.60;;;16.00;99.90;;;;;;4988680;28;20456;-62
2023/08/31 07:44:51;;;;;;;6.70;4.27;;;16.00;99.90;;;;;;4988846;28;20452;-62
2023/08/31 07:47:18;;;;;;;4.50;4.20;;;15.90;99.90;;;;;;4995567;28;20999;-62
2023/08/31 07:49:45;;;;;;;5.70;4.00;;;15.80;99.90;;;;;;4997412;28;20542;-61
2023/08/31 07:52:12;;;;;;;7.10;3.60;;;15.90;99.90;;;;;;5002050;28;20456;-62
2023/08/31 07:54:38;;;;;;;4.43;4.03;;;15.90;99.90;;;;;;4991459;28;20493;-62
2023/08/31 07:57:05;;;;;;;6.03;3.63;;;15.80;99.90;;;;;;5002065;28;20550;-62
2023/08/31 07:59:34;;;;;;;3.50;3.17;;;15.90;99.90;;;;;;4996763;28;20461;-62
2023/08/31 08:02:00;;;;;;;8.13;3.80;;;15.90;99.90;;;;;;5007463;28;20453;-62
2023/08/31 08:04:28;;;;;;;5.63;3.23;;;16.00;99.90;;;;;;4991732;28;20945;-62
2023/08/31 08:06:55;;;;;;;3.53;3.23;;;16.00;99.90;;;;;;5006987;28;20529;-62
2023/08/31 08:09:22;;;;;;;6.00;3.20;;;16.10;99.90;;;;;;5000529;28;20929;-62
2023/08/31 08:11:49;;;;;;;3.43;3.00;;;16.10;99.90;;;;;;4998427;28;20504;-62
2023/08/31 08:14:16;;;;;;;2.63;2.43;;;16.20;99.90;;;;;;4993458;28;20493;-62
2023/08/31 08:16:44;;;;;;;3.80;2.73;;;16.20;99.90;;;;;;5003450;28;20823;-62
2023/08/31 08:19:11;;;;;;;4.60;3.13;;;16.20;99.90;;;;;;4993797;28;20545;-62
2023/08/31 08:21:38;;;;;;;6.43;2.47;;;16.30;99.90;;;;;;4998158;28;20884;-62
2023/08/31 08:24:05;;;;;;;3.37;2.40;;;16.30;99.90;;;;;;5001347;28;20442;-62
2023/08/31 08:26:32;;;;;;;8.40;3.87;;;16.30;99.90;;;;;;4991352;28;20455;-62
2023/08/31 08:28:58;;;;;;;2.87;2.30;;;16.30;99.90;;;;;;5004076;28;20834;-62
2023/08/31 08:31:25;;;;;;;8.20;3.37;;;16.40;99.90;;;;;;4995141;28;20451;-62
2023/08/31 08:33:53;;;;;;;5.57;2.67;;;16.40;99.90;;;;;;4995710;28;20458;-61
2023/08/31 08:36:20;;;;;;;5.00;2.37;;;16.40;99.90;;;;;;5002103;28;20826;-61
2023/08/31 08:38:47;;;;;;;2.43;2.23;;;16.50;99.90;;;;;;4991397;28;20499;-62
2023/08/31 08:41:17;;;;;;;2.70;2.30;;;16.50;99.90;;;;;;5001542;28;20876;-61
2023/08/31 08:43:46;;;;;;;6.30;3.03;;;16.60;99.90;;;;;;4998542;28;20537;-62
2023/08/31 08:46:12;;;;;;;5.00;3.50;;;16.70;99.90;;;;;;4992989;28;20535;-62
2023/08/31 08:48:40;;;;;;;5.33;2.40;;;16.80;99.90;;;;;;5004126;28;20476;-61
2023/08/31 08:51:11;;;;;;;3.73;2.30;;;16.90;99.90;;;;;;4993160;28;20443;-62
2023/08/31 08:53:39;;;;;;;7.13;2.77;;;17.00;99.90;;;;;;4998533;28;20539;-62
2023/08/31 08:56:06;;;;;;;4.30;2.40;;;17.10;99.90;;;;;;5000519;28;20494;-62
2023/08/31 08:58:32;;;;;;;5.30;2.70;;;17.20;99.90;;;;;;4991057;28;20988;-62
2023/08/31 09:00:59;;;;;;;2.90;2.30;;;17.20;99.90;;;;;;5003498;28;20447;-61
2023/08/31 09:03:26;;;;;;;2.63;2.40;;;17.20;99.90;;;;;;4995404;28;20446;-62
2023/08/31 09:05:53;;;;;;;2.87;2.67;;;17.20;99.90;;;;;;4996001;28;21029;-61
2023/08/31 09:08:27;;;;;;;3.10;2.90;;;17.10;99.90;;;;;;5004381;28;20857;-61
2023/08/31 09:10:56;;;;;;;4.50;2.57;;;17.10;99.90;;;;;;4994721;28;20966;-62
2023/08/31 09:13:27;;;;;;;4.30;2.90;;;16.90;99.90;;;;;;5004016;28;20447;-62
2023/08/31 09:15:54;;;;;;;2.80;2.43;;;16.80;99.90;;;;;;5002107;28;20484;-61
2023/08/31 09:18:25;;;;;;;6.57;2.60;;;16.80;99.90;;;;;;4996240;28;20479;-61
2023/08/31 09:20:52;;;;;;;5.20;3.13;;;16.80;99.90;;;;;;5010183;28;20521;-62
2023/08/31 09:23:21;;;;;;;3.80;3.03;;;16.90;99.90;;;;;;5004002;28;20456;-62
2023/08/31 09:25:49;;;;;;;2.63;2.40;;;17.00;99.90;;;;;;5001542;28;20448;-62
2023/08/31 09:28:17;;;;;;;3.67;3.37;;;17.20;99.90;;;;;;4995783;28;20473;-62
2023/08/31 09:30:46;;;;;;;3.60;2.87;;;17.20;99.90;;;;;;5007193;28;20932;-62
2023/08/31 09:33:16;;;;;;;2.97;2.70;;;17.30;99.90;;;;;;4995819;28;20835;-62
2023/08/31 09:35:48;;;;;;;3.10;2.80;;;17.30;99.90;;;;;;5010297;28;20495;-62
2023/08/31 09:38:16;;;;;;;2.80;2.40;;;17.40;99.90;;;;;;4995744;28;20821;-62
2023/08/31 09:40:44;;;;;;;3.90;3.50;;;17.40;99.90;;;;;;5007116;28;21189;-62
2023/08/31 09:43:11;;;;;;;2.43;2.23;;;17.50;99.90;;;;;;4996000;28;20448;-61
2023/08/31 09:45:39;;;;;;;2.90;2.60;;;17.60;99.90;;;;;;5001441;28;20520;-62
2023/08/31 09:48:07;;;;;;;10.80;3.60;;;17.60;99.90;;;;;;5002772;28;20555;-62
2023/08/31 09:50:35;;;;;;;3.90;2.50;;;17.60;99.90;;;;;;4994056;28;20445;-62
2023/08/31 09:53:03;;;;;;;2.97;2.37;;;17.70;99.90;;;;;;5006093;28;20445;-62
2023/08/31 09:55:31;;;;;;;8.13;3.80;;;17.70;99.90;;;;;;4999019;28;20480;-61
2023/08/31 09:58:02;;;;;;;3.40;2.87;;;17.80;99.90;;;;;;4996998;28;20568;-62
2023/08/31 10:00:31;;;;;;;21.27;5.70;;;17.90;99.90;;;;;;5006352;28;20457;-62
2023/08/31 10:03:03;;;;;;;2.60;2.40;;;17.80;99.90;;;;;;4993970;28;20454;-61
2023/08/31 10:05:30;;;;;;;4.20;2.43;;;17.70;99.90;;;;;;5001738;28;20448;-62
2023/08/31 10:07:58;;;;;;;2.53;2.43;;;17.60;99.90;;;;;;5001601;28;20481;-62
2023/08/31 10:10:25;;;;;;;4.07;2.03;;;17.50;99.90;;;;;;4994080;28;20556;-62
2023/08/31 10:12:52;;;;;;;3.33;2.33;;;17.30;99.90;;;;;;5006619;28;20444;-62
2023/08/31 10:15:21;;;;;;;3.40;2.20;;;17.30;99.90;;;;;;4997246;28;20546;-62
2023/08/31 10:17:48;;;;;;;3.20;3.00;;;17.20;99.90;;;;;;5008797;28;20555;-62
2023/08/31 10:20:17;;;;;;;3.97;2.40;;;17.20;99.90;;;;;;4995708;28;20482;-62
2023/08/31 10:22:44;;;;;;;4.27;3.03;;;17.20;99.90;;;;;;5006227;28;20535;-61
2023/08/31 10:25:11;;;;;;;2.43;2.23;;;17.30;99.90;;;;;;4995747;28;20450;-62
2023/08/31 10:27:39;;;;;;;2.53;1.90;;;17.30;99.90;;;;;;4999502;28;20578;-61
2023/08/31 10:30:25;;;;;;;2.50;2.30;;;17.40;99.90;;;;;;5002801;28;20444;-62
2023/08/31 10:33:22;;;;;;;2.13;1.70;;;17.40;99.90;;;;;;4991982;28;20447;-62
2023/08/31 10:35:51;;;;;;;4.30;2.53;;;17.40;99.90;;;;;;4998590;28;20945;-62
2023/08/31 10:38:24;;;;;;;2.93;2.00;;;17.40;99.90;;;;;;5003919;28;20472;-62
2023/08/31 10:41:23;;;;;;;3.13;2.10;;;17.40;99.90;;;;;;4992744;28;20454;-62
2023/08/31 10:43:51;;;;;;;15.37;5.30;;;17.40;99.90;;;;;;4998350;28;20454;-62
2023/08/31 10:46:29;;;;;;;28.73;6.50;;;17.50;99.90;;;;;;5003599;28;20454;-61
2023/08/31 10:48:59;;;;;;;59.27;11.53;;;17.50;99.90;;;;;;4993206;28;20547;-61
2023/08/31 10:51:27;;;;;;;44.13;10.63;;;17.60;99.90;;;;;;5001609;28;20533;-62
2023/08/31 10:54:06;;;;;;;5.37;2.27;;;17.70;99.90;;;;;;5001037;28;20450;-61
2023/08/31 10:56:33;;;;;;;71.53;12.97;;;17.80;99.90;;;;;;4992574;28;20938;-62
2023/08/31 10:59:01;;;;;;;29.30;5.73;;;18.00;99.90;;;;;;5004902;28;21045;-62
2023/08/31 11:01:53;;;;;;;25.13;5.10;;;18.10;99.90;;;;;;4996955;28;20466;-62
2023/08/31 11:04:22;;;;;;;15.80;6.00;;;18.10;99.90;;;;;;4993964;28;20453;-62
2023/08/31 11:06:49;;;;;;;11.30;3.63;;;18.20;99.90;;;;;;5004682;28;20448;-62
2023/08/31 11:09:21;;;;;;;4.27;2.50;;;18.20;99.90;;;;;;4995263;28;20555;-62
2023/08/31 11:11:48;;;;;;;17.03;4.00;;;18.20;99.90;;;;;;4997824;28;20492;-62
2023/08/31 11:14:16;;;;;;;13.10;5.83;;;18.20;99.90;;;;;;5003398;28;20453;-62
2023/08/31 11:16:45;;;;;;;27.60;7.40;;;18.20;99.90;;;;;;4991809;28;20547;-62
2023/08/31 11:19:11;;;;;;;9.33;4.53;;;18.10;99.90;;;;;;5003280;28;20465;-62
2023/08/31 11:21:41;;;;;;;3.60;2.90;;;18.10;99.90;;;;;;4998176;28;20462;-62
2023/08/31 11:24:09;;;;;;;2.53;2.33;;;18.00;99.90;;;;;;4995216;28;20451;-62
2023/08/31 11:26:36;;;;;;;2.13;1.87;;;18.00;99.90;;;;;;5004561;28;20453;-62
2023/08/31 11:29:07;;;;;;;5.90;3.90;;;18.00;99.90;;;;;;4993412;28;20469;-62
2023/08/31 11:31:38;;;;;;;4.50;2.20;;;18.10;99.90;;;;;;4999345;28;20454;-61
2023/08/31 11:34:06;;;;;;;3.17;2.40;;;18.20;99.90;;;;;;5000315;28;20511;-62
2023/08/31 11:36:33;;;;;;;3.10;2.30;;;18.30;99.90;;;;;;4991408;28;20600;-62
2023/08/31 11:39:04;;;;;;;9.73;3.23;;;18.50;99.90;;;;;;5004208;28;20469;-62
2023/08/31 11:41:33;;;;;;;2.13;1.93;;;18.60;99.90;;;;;;4996672;28;20569;-62
2023/08/31 11:44:00;;;;;;;2.53;1.60;;;18.70;99.90;;;;;;5007871;28;20457;-62
2023/08/31 11:46:27;;;;;;;2.97;2.47;;;18.80;99.90;;;;;;4991799;28;20833;-62
2023/08/31 11:48:54;;;;;;;2.60;1.90;;;19.00;99.90;;;;;;5004492;28;20991;-62
2023/08/31 11:51:21;;;;;;;4.37;2.57;;;19.00;99.90;;;;;;4995580;28;20452;-62
2023/08/31 11:53:49;;;;;;;6.80;3.07;;;19.10;99.90;;;;;;4997316;28;20455;-62
2023/08/31 11:56:18;;;;;;;3.97;2.43;;;19.10;99.90;;;;;;5002012;28;20496;-62
2023/08/31 11:58:45;;;;;;;4.47;1.97;;;19.10;99.90;;;;;;4991695;28;20486;-62
2023/08/31 12:01:19;;;;;;;4.90;2.87;;;19.10;99.90;;;;;;5002182;28;20458;-62
2023/08/31 12:03:46;;;;;;;2.40;2.20;;;19.10;99.90;;;;;;4998579;28;20449;-62
2023/08/31 12:06:16;;;;;;;2.37;2.17;;;19.20;99.90;;;;;;4993097;28;20541;-62
2023/08/31 12:08:43;;;;;;;1.90;1.63;;;19.20;99.90;;;;;;5004553;28;20496;-62
2023/08/31 12:11:10;;;;;;;3.07;2.10;;;19.40;99.90;;;;;;4993714;28;20445;-62
2023/08/31 12:13:38;;;;;;;2.50;2.40;;;19.50;99.90;;;;;;4998818;28;20479;-62
2023/08/31 12:16:13;;;;;;;4.70;2.37;;;19.70;99.90;;;;;;5000814;28;21022;-62
2023/08/31 12:18:40;;;;;;;3.13;2.83;;;19.90;99.90;;;;;;4991876;28;20560;-62
2023/08/31 12:21:07;;;;;;;2.63;1.97;;;20.00;98.80;;;;;;5002892;28;20566;-61
2023/08/31 12:23:34;;;;;;;4.10;3.13;;;20.10;98.00;;;;;;4996920;28;20450;-62
2023/08/31 12:26:02;;;;;;;4.90;1.80;;;20.20;97.20;;;;;;4994708;28;20537;-62
2023/08/31 12:28:29;;;;;;;1.60;1.50;;;20.30;99.10;;;;;;5004520;28;20474;-62
2023/08/31 12:30:57;;;;;;;5.07;2.33;;;20.50;98.00;;;;;;4991838;28;20449;-62
2023/08/31 12:33:24;;;;;;;2.50;2.30;;;20.60;99.00;;;;;;4999006;28;20453;-62
2023/08/31 12:35:51;;;;;;;2.33;1.90;;;20.70;99.20;;;;;;4998629;28;20490;-63
2023/08/31 12:38:18;;;;;;;2.60;1.90;;;20.60;97.70;;;;;;4992695;28;20549;-62
2023/08/31 12:40:45;;;;;;;2.80;2.33;;;20.60;97.10;;;;;;5004215;28;20485;-62
2023/08/31 12:43:12;;;;;;;5.40;3.23;;;20.50;97.60;;;;;;4995180;28;20459;-62
2023/08/31 12:45:39;;;;;;;2.50;2.17;;;20.50;98.10;;;;;;5001414;28;20453;-62
2023/08/31 12:48:08;;;;;;;2.33;2.07;;;20.40;97.10;;;;;;5004134;28;20480;-62